createdAt,value
2019-06-08T00:00:13.217Z,82.80
2019-06-08T00:02:41.538Z,82.80
2019-06-08T00:05:10.710Z,82.90
2019-06-08T00:07:39.286Z,83.00
2019-06-08T00:10:08.691Z,83.00
2019-06-08T00:12:37.272Z,82.60
2019-06-08T00:15:07.181Z,82.90
2019-06-08T00:17:38.812Z,83.20
2019-06-08T00:20:07.714Z,83.40
2019-06-08T00:22:36.447Z,83.60
2019-06-08T00:25:05.570Z,83.80
2019-06-08T00:27:34.303Z,84.20
2019-06-08T00:30:03.763Z,84.70
2019-06-08T00:32:32.652Z,84.90
2019-06-08T00:35:01.210Z,85.10
2019-06-08T00:37:29.790Z,85.10
2019-06-08T00:39:58.475Z,85.40
2019-06-08T00:42:27.208Z,85.50
2019-06-08T00:44:55.816Z,85.90
2019-06-08T00:47:24.725Z,86.10
2019-06-08T00:49:53.424Z,86.10
2019-06-08T00:52:23.178Z,86.10
2019-06-08T00:54:51.880Z,86.40
2019-06-08T00:57:21.726Z,86.20
2019-06-08T00:59:50.444Z,86.30
2019-06-08T01:02:20.353Z,86.40
2019-06-08T01:04:49.044Z,86.40
2019-06-08T01:07:17.983Z,86.40
2019-06-08T01:09:46.670Z,86.40
2019-06-08T01:12:15.271Z,86.20
2019-06-08T01:14:44.053Z,86.30
2019-06-08T01:17:12.744Z,86.30
2019-06-08T01:19:41.569Z,86.30
2019-06-08T01:22:10.165Z,86.30
2019-06-08T01:24:38.837Z,86.90
2019-06-08T01:27:07.435Z,86.10
2019-06-08T01:29:36.079Z,86.10
2019-06-08T01:32:04.747Z,85.80
2019-06-08T01:34:33.413Z,85.60
2019-06-08T01:37:02.082Z,85.50
2019-06-08T01:39:32.396Z,85.60
2019-06-08T01:42:01.111Z,85.60
2019-06-08T01:44:30.032Z,85.70
2019-06-08T01:46:58.794Z,85.50
2019-06-08T01:49:28.415Z,85.70
2019-06-08T01:51:56.940Z,85.70
2019-06-08T01:54:26.820Z,85.70
2019-06-08T01:56:55.481Z,85.60
2019-06-08T01:59:25.219Z,85.40
2019-06-08T02:01:53.942Z,85.10
2019-06-08T02:04:23.882Z,85.20
2019-06-08T02:06:52.617Z,85.30
2019-06-08T02:09:21.258Z,85.20
2019-06-08T02:11:49.838Z,85.10
2019-06-08T02:14:18.410Z,85.00
2019-06-08T02:16:47.050Z,85.00
2019-06-08T02:19:15.698Z,85.10
2019-06-08T02:21:44.286Z,85.40
2019-06-08T02:24:13.162Z,85.30
2019-06-08T02:26:41.830Z,85.50
2019-06-08T02:29:10.422Z,85.50
2019-06-08T02:31:39.202Z,85.40
2019-06-08T02:34:07.778Z,85.30
2019-06-08T02:36:37.909Z,85.20
2019-06-08T02:39:08.110Z,85.20
2019-06-08T02:41:37.522Z,85.10
2019-06-08T02:44:06.494Z,85.00
2019-06-08T02:46:35.989Z,84.90
2019-06-08T02:49:05.770Z,84.90
2019-06-08T02:51:36.472Z,84.90
2019-06-08T02:54:05.457Z,84.90
2019-06-08T02:56:36.715Z,84.90
2019-06-08T02:59:05.790Z,84.70
2019-06-08T03:01:35.966Z,84.60
2019-06-08T03:04:05.558Z,84.40
2019-06-08T03:06:36.763Z,84.50
2019-06-08T03:09:06.813Z,84.30
2019-06-08T03:11:36.899Z,84.30
2019-06-08T03:14:05.891Z,84.10
2019-06-08T03:16:35.916Z,84.10
2019-06-08T03:19:21.148Z,84.30
2019-06-08T03:21:36.271Z,84.30
2019-06-08T03:24:05.437Z,84.30
2019-06-08T03:26:34.313Z,84.30
2019-06-08T03:29:02.953Z,84.30
2019-06-08T03:31:34.459Z,84.10
2019-06-08T03:34:01.835Z,83.80
2019-06-08T03:36:30.479Z,83.80
2019-06-08T03:38:59.083Z,83.70
2019-06-08T03:41:27.709Z,83.60
2019-06-08T03:43:56.304Z,83.50
2019-06-08T03:46:24.910Z,83.50
2019-06-08T03:48:53.508Z,83.30
2019-06-08T03:51:22.065Z,83.20
2019-06-08T03:53:50.703Z,83.20
2019-06-08T03:56:19.296Z,83.20
2019-06-08T03:58:48.328Z,83.30
2019-06-08T04:01:17.361Z,83.20
2019-06-08T04:03:46.386Z,83.10
2019-06-08T04:06:15.198Z,82.90
2019-06-08T04:08:46.603Z,82.80
2019-06-08T04:11:14.132Z,82.80
2019-06-08T04:13:44.478Z,82.60
2019-06-08T04:16:13.052Z,82.40
2019-06-08T04:18:42.111Z,82.00
2019-06-08T04:21:10.801Z,82.20
2019-06-08T04:23:40.454Z,82.00
2019-06-08T04:26:09.686Z,81.80
2019-06-08T04:28:38.397Z,81.70
2019-06-08T04:31:07.025Z,81.80
2019-06-08T04:33:35.627Z,81.50
2019-06-08T04:36:04.365Z,81.40
2019-06-08T04:38:32.961Z,81.30
2019-06-08T04:41:01.526Z,81.00
2019-06-08T04:43:30.187Z,81.20
2019-06-08T04:45:58.742Z,80.90
2019-06-08T04:48:27.318Z,80.40
2019-06-08T04:50:55.965Z,80.20
2019-06-08T04:53:24.548Z,80.30
2019-06-08T04:55:53.280Z,80.00
2019-06-08T04:58:22.021Z,80.00
2019-06-08T05:00:51.053Z,79.90
2019-06-08T05:03:19.807Z,79.80
2019-06-08T05:05:50.168Z,79.60
2019-06-08T05:08:18.724Z,79.40
2019-06-08T05:10:47.537Z,79.00
2019-06-08T05:13:16.234Z,79.00
2019-06-08T05:15:45.416Z,79.00
2019-06-08T05:18:14.191Z,79.10
2019-06-08T05:20:45.319Z,78.70
2019-06-08T05:23:13.157Z,78.50
2019-06-08T05:25:43.101Z,77.90
2019-06-08T05:28:11.751Z,77.60
2019-06-08T05:30:41.266Z,77.90
2019-06-08T05:33:09.962Z,77.70
2019-06-08T05:35:39.401Z,77.20
2019-06-08T05:38:08.164Z,76.80
2019-06-08T05:40:36.895Z,76.40
2019-06-08T05:43:05.659Z,76.20
2019-06-08T05:45:34.389Z,75.70
2019-06-08T05:48:02.919Z,75.40
2019-06-08T05:50:31.491Z,75.20
2019-06-08T05:53:00.099Z,74.40
2019-06-08T05:55:28.799Z,74.00
2019-06-08T05:57:57.391Z,74.10
2019-06-08T06:00:27.177Z,73.80
2019-06-08T06:02:55.785Z,72.50
2019-06-08T06:05:24.520Z,71.50
2019-06-08T06:07:53.161Z,71.00
2019-06-08T06:10:22.142Z,70.50
2019-06-08T06:12:51.183Z,70.70
2019-06-08T06:15:19.894Z,70.40
2019-06-08T06:17:49.790Z,69.40
2019-06-08T06:20:18.687Z,69.10
2019-06-08T06:22:47.687Z,68.50
2019-06-08T06:25:16.910Z,68.30
2019-06-08T06:27:45.598Z,67.80
2019-06-08T06:30:15.527Z,68.20
2019-06-08T06:32:44.138Z,67.90
2019-06-08T06:35:13.081Z,67.00
2019-06-08T06:37:41.851Z,66.00
2019-06-08T06:40:10.728Z,65.90
2019-06-08T06:42:39.489Z,66.20
2019-06-08T06:45:08.674Z,66.60
2019-06-08T06:47:37.461Z,66.20
2019-06-08T06:50:06.988Z,66.00
2019-06-08T06:52:35.675Z,64.80
2019-06-08T06:55:05.673Z,64.30
2019-06-08T06:57:36.419Z,64.80
2019-06-08T07:00:09.409Z,64.90
2019-06-08T07:02:38.098Z,63.80
2019-06-08T07:05:07.514Z,62.50
2019-06-08T07:07:36.277Z,62.10
2019-06-08T07:10:07.796Z,61.80
2019-06-08T07:12:37.472Z,61.90
2019-06-08T07:15:08.292Z,61.70
2019-06-08T07:17:36.926Z,61.70
2019-06-08T07:20:08.190Z,61.90
2019-06-08T07:22:37.238Z,60.50
2019-06-08T07:25:06.043Z,60.30
2019-06-08T07:27:34.627Z,59.70
2019-06-08T07:30:03.358Z,59.60
2019-06-08T07:32:32.891Z,59.20
2019-06-08T07:35:01.490Z,59.50
2019-06-08T07:37:30.143Z,59.30
2019-06-08T07:40:00.181Z,59.80
2019-06-08T07:42:28.963Z,59.80
2019-06-08T07:44:57.533Z,59.60
2019-06-08T07:47:26.201Z,59.10
2019-06-08T07:49:55.626Z,59.30
2019-06-08T07:52:24.229Z,59.60
2019-06-08T07:54:54.640Z,58.80
2019-06-08T07:57:23.314Z,58.50
2019-06-08T07:59:53.188Z,58.40
2019-06-08T08:02:22.409Z,58.30
2019-06-08T08:04:52.416Z,58.10
2019-06-08T08:07:21.203Z,57.90
2019-06-08T08:09:50.591Z,58.10
2019-06-08T08:12:19.229Z,57.90
2019-06-08T08:14:48.756Z,57.90
2019-06-08T08:17:17.552Z,58.10
2019-06-08T08:19:46.190Z,58.50
2019-06-08T08:22:25.061Z,58.60
2019-06-08T08:24:45.122Z,58.60
2019-06-08T08:27:13.790Z,57.70
2019-06-08T08:29:42.453Z,57.40
2019-06-08T08:32:11.126Z,57.60
2019-06-08T08:34:39.830Z,57.30
2019-06-08T08:37:09.707Z,56.50
2019-06-08T08:39:38.582Z,56.30
2019-06-08T08:42:08.431Z,56.70
2019-06-08T08:44:37.957Z,56.40
2019-06-08T08:47:07.707Z,56.50
2019-06-08T08:49:38.016Z,56.30
2019-06-08T08:52:08.787Z,55.90
2019-06-08T08:54:37.830Z,56.20
2019-06-08T08:57:08.422Z,55.70
2019-06-08T08:59:38.213Z,56.30
2019-06-08T09:02:11.049Z,56.40
2019-06-08T09:04:38.094Z,55.80
2019-06-08T09:07:10.305Z,56.10
2019-06-08T09:09:38.687Z,55.50
2019-06-08T09:12:08.340Z,55.70
2019-06-08T09:14:41.139Z,55.60
2019-06-08T09:17:08.618Z,54.70
2019-06-08T09:19:38.275Z,54.00
2019-06-08T09:22:08.612Z,53.40
2019-06-08T09:24:39.008Z,51.40
2019-06-08T09:27:08.221Z,49.00
2019-06-08T09:29:38.835Z,46.30
2019-06-08T09:32:08.190Z,43.30
2019-06-08T09:34:38.656Z,41.40
2019-06-08T09:37:08.389Z,40.00
2019-06-08T09:39:38.524Z,38.60
2019-06-08T09:42:09.060Z,38.10
2019-06-08T09:44:37.962Z,36.70
2019-06-08T09:47:12.408Z,36.20
2019-06-08T09:49:37.703Z,36.40
2019-06-08T09:52:08.596Z,35.80
2019-06-08T09:54:38.491Z,35.60
2019-06-08T09:57:09.113Z,33.30
2019-06-08T09:59:38.616Z,32.60
2019-06-08T10:02:12.478Z,31.70
2019-06-08T10:04:38.699Z,30.90
2019-06-08T10:07:08.792Z,29.20
2019-06-08T10:09:38.222Z,28.70
2019-06-08T10:12:09.714Z,28.90
2019-06-08T10:14:38.024Z,30.00
2019-06-08T10:17:08.984Z,31.50
2019-06-08T10:19:37.126Z,30.40
2019-06-08T10:22:08.403Z,29.70
2019-06-08T10:24:41.166Z,29.20
2019-06-08T10:27:08.582Z,29.80
2019-06-08T10:29:38.293Z,28.60
2019-06-08T10:32:08.923Z,27.50
2019-06-08T10:34:38.670Z,27.10
2019-06-08T10:37:12.712Z,26.60
2019-06-08T10:39:37.975Z,27.10
2019-06-08T10:42:09.780Z,26.80
2019-06-08T10:44:38.222Z,26.40
2019-06-08T10:47:10.006Z,25.50
2019-06-08T10:49:38.432Z,25.70
2019-06-08T10:52:10.666Z,26.20
2019-06-08T10:54:37.927Z,26.20
2019-06-08T10:57:07.621Z,26.10
2019-06-08T10:59:39.944Z,25.90
2019-06-08T11:02:11.811Z,25.40
2019-06-08T11:04:38.817Z,25.00
2019-06-08T11:07:13.201Z,24.90
2019-06-08T11:09:37.989Z,25.10
2019-06-08T11:12:11.939Z,25.20
2019-06-08T11:14:38.157Z,24.80
2019-06-08T11:17:09.943Z,24.60
2019-06-08T11:19:37.771Z,24.00
2019-06-08T11:22:12.306Z,24.30
2019-06-08T11:24:38.820Z,24.40
2019-06-08T11:27:10.584Z,23.90
2019-06-08T11:29:38.404Z,23.80
2019-06-08T11:32:11.843Z,23.40
2019-06-08T11:34:37.865Z,23.30
2019-06-08T11:37:09.869Z,23.00
2019-06-08T11:39:38.186Z,22.50
2019-06-08T11:42:10.700Z,22.40
2019-06-08T11:44:39.031Z,22.80
2019-06-08T11:47:12.274Z,22.60
2019-06-08T11:49:38.249Z,22.60
2019-06-08T11:52:06.997Z,22.50
2019-06-08T11:54:38.038Z,22.90
2019-06-08T11:57:08.400Z,23.10
2019-06-08T11:59:37.471Z,22.80
2019-06-08T12:02:09.011Z,22.50
2019-06-08T12:04:38.400Z,22.00
2019-06-08T12:07:09.108Z,21.90
2019-06-08T12:09:37.278Z,22.20
2019-06-08T12:12:09.064Z,22.00
2019-06-08T12:14:37.612Z,21.90
2019-06-08T12:17:10.846Z,22.30
2019-06-08T12:19:37.702Z,22.00
2019-06-08T12:22:08.766Z,21.10
2019-06-08T12:24:41.995Z,20.80
2019-06-08T12:27:19.039Z,20.60
2019-06-08T12:29:37.287Z,21.40
2019-06-08T12:32:08.936Z,21.80
2019-06-08T12:34:38.400Z,21.80
2019-06-08T12:37:12.138Z,21.20
2019-06-08T12:39:38.753Z,21.50
2019-06-08T12:42:13.883Z,21.00
2019-06-08T12:44:38.231Z,20.80
2019-06-08T12:47:10.659Z,21.30
2019-06-08T12:49:40.110Z,22.50
2019-06-08T12:52:08.645Z,22.10
2019-06-08T12:54:38.064Z,21.30
2019-06-08T12:57:10.235Z,20.10
2019-06-08T12:59:38.523Z,20.80
2019-06-08T13:02:08.741Z,20.50
2019-06-08T13:04:38.434Z,19.60
2019-06-08T13:07:09.739Z,19.40
2019-06-08T13:09:38.429Z,19.10
2019-06-08T13:12:08.001Z,19.40
2019-06-08T13:14:38.527Z,19.40
2019-06-08T13:17:08.635Z,20.40
2019-06-08T13:19:38.680Z,20.60
2019-06-08T13:22:08.834Z,21.50
2019-06-08T13:24:37.869Z,21.40
2019-06-08T13:27:06.828Z,21.50
2019-06-08T13:29:35.617Z,21.10
2019-06-08T13:32:04.349Z,22.00
2019-06-08T13:34:33.102Z,22.30
2019-06-08T13:37:01.750Z,22.20
2019-06-08T13:39:30.328Z,21.40
2019-06-08T13:41:58.898Z,21.10
2019-06-08T13:44:27.969Z,21.20
2019-06-08T13:46:57.834Z,21.60
2019-06-08T13:49:29.714Z,22.60
2019-06-08T13:51:58.431Z,24.40
2019-06-08T13:54:30.917Z,24.70
2019-06-08T13:56:59.022Z,24.50
2019-06-08T13:59:30.680Z,23.50
2019-06-08T14:01:58.546Z,23.10
2019-06-08T14:04:27.303Z,24.00
2019-06-08T14:06:58.123Z,23.90
2019-06-08T14:09:28.445Z,23.40
2019-06-08T14:11:57.756Z,22.90
2019-06-08T14:14:28.861Z,22.20
2019-06-08T14:16:58.639Z,21.80
2019-06-08T14:19:29.769Z,21.70
2019-06-08T14:21:57.535Z,21.50
2019-06-08T14:24:30.045Z,21.50
2019-06-08T14:26:58.308Z,21.80
2019-06-08T14:29:28.717Z,22.10
2019-06-08T14:31:57.746Z,22.10
2019-06-08T14:34:29.114Z,22.10
2019-06-08T14:36:58.952Z,22.50
2019-06-08T14:39:29.650Z,23.10
2019-06-08T14:41:57.813Z,23.30
2019-06-08T14:44:31.365Z,23.30
2019-06-08T14:46:57.898Z,23.80
2019-06-08T14:49:32.772Z,24.00
2019-06-08T14:51:57.904Z,25.20
2019-06-08T14:54:32.445Z,25.20
2019-06-08T14:56:57.777Z,24.40
2019-06-08T14:59:29.625Z,24.00
2019-06-08T15:01:56.956Z,23.60
2019-06-08T15:04:28.524Z,23.50
2019-06-08T15:06:58.448Z,24.90
2019-06-08T15:09:27.527Z,26.60
2019-06-08T15:11:58.152Z,26.30
2019-06-08T15:14:29.303Z,26.10
2019-06-08T15:16:59.042Z,26.40
2019-06-08T15:19:29.502Z,27.80
2019-06-08T15:21:57.803Z,29.00
2019-06-08T15:24:29.008Z,29.10
2019-06-08T15:26:58.313Z,29.50
2019-06-08T15:29:29.136Z,29.00
2019-06-08T15:31:58.171Z,28.90
2019-06-08T15:34:31.111Z,29.60
2019-06-08T15:36:59.952Z,30.30
2019-06-08T15:39:31.894Z,31.00
2019-06-08T15:42:00.187Z,31.10
2019-06-08T15:44:30.390Z,32.00
2019-06-08T15:46:59.218Z,32.60
2019-06-08T15:49:30.365Z,33.40
2019-06-08T15:51:58.811Z,33.80
2019-06-08T15:54:32.230Z,34.50
2019-06-08T15:56:58.468Z,34.80
2019-06-08T15:59:35.018Z,35.80
2019-06-08T16:01:58.209Z,36.70
2019-06-08T16:04:27.755Z,37.10
2019-06-08T16:06:56.480Z,37.40
2019-06-08T16:09:25.962Z,37.90
2019-06-08T16:11:59.603Z,38.10
2019-06-08T16:14:28.841Z,38.60
2019-06-08T16:16:57.462Z,38.70
2019-06-08T16:19:27.352Z,39.20
2019-06-08T16:21:56.234Z,39.10
2019-06-08T16:24:25.751Z,39.20
2019-06-08T16:26:57.540Z,39.40
2019-06-08T16:29:26.808Z,39.70
2019-06-08T16:31:55.640Z,39.80
2019-06-08T16:34:24.212Z,40.00
2019-06-08T16:36:52.905Z,40.20
2019-06-08T16:39:21.744Z,40.50
2019-06-08T16:41:50.938Z,41.00
2019-06-08T16:44:20.921Z,41.00
2019-06-08T16:46:49.482Z,41.30
2019-06-08T16:49:18.154Z,41.40
2019-06-08T16:51:46.694Z,41.60
2019-06-08T16:54:18.634Z,41.80
2019-06-08T16:56:47.257Z,42.20
2019-06-08T16:59:15.826Z,42.40
2019-06-08T17:01:44.485Z,42.80
2019-06-08T17:04:13.366Z,43.00
2019-06-08T17:06:42.286Z,43.50
2019-06-08T17:09:11.919Z,46.00
2019-06-08T17:11:40.572Z,47.30
2019-06-08T17:14:09.295Z,48.50
2019-06-08T17:16:38.825Z,49.20
2019-06-08T17:19:07.522Z,49.80
2019-06-08T17:21:36.413Z,50.50
2019-06-08T17:24:05.132Z,50.50
2019-06-08T17:26:34.647Z,50.80
2019-06-08T17:29:03.305Z,50.60
2019-06-08T17:31:32.998Z,50.70
2019-06-08T17:34:01.680Z,50.60
2019-06-08T17:36:30.378Z,50.50
2019-06-08T17:38:59.115Z,50.50
2019-06-08T17:41:27.775Z,50.40
2019-06-08T17:43:56.373Z,50.20
2019-06-08T17:46:25.003Z,50.20
2019-06-08T17:48:53.611Z,50.30
2019-06-08T17:51:22.324Z,50.30
2019-06-08T17:53:53.296Z,50.50
2019-06-08T17:56:22.002Z,50.90
2019-06-08T17:58:50.598Z,51.20
2019-06-08T18:01:19.255Z,51.30
2019-06-08T18:03:48.319Z,51.30
2019-06-08T18:06:17.940Z,51.60
2019-06-08T18:08:48.044Z,51.80
2019-06-08T18:11:17.439Z,51.90
2019-06-08T18:13:48.418Z,51.70
2019-06-08T18:16:18.401Z,51.80
2019-06-08T18:18:48.073Z,52.70
2019-06-08T18:21:17.827Z,52.50
2019-06-08T18:23:48.166Z,52.50
2019-06-08T18:26:17.293Z,52.90
2019-06-08T18:28:48.358Z,53.10
2019-06-08T18:31:18.113Z,53.20
2019-06-08T18:33:50.090Z,53.30
2019-06-08T18:36:17.472Z,53.30
2019-06-08T18:38:48.381Z,53.60
2019-06-08T18:41:17.661Z,54.10
2019-06-08T18:43:48.886Z,54.60
2019-06-08T18:46:17.983Z,54.70
2019-06-08T18:49:04.704Z,54.90
2019-06-08T18:51:33.763Z,55.30
2019-06-08T18:54:11.298Z,55.50
2019-06-08T18:56:32.901Z,55.60
2019-06-08T18:59:03.659Z,55.90
2019-06-08T19:01:32.374Z,55.80
2019-06-08T19:04:00.943Z,55.90
2019-06-08T19:06:29.638Z,56.20
2019-06-08T19:08:58.391Z,56.40
2019-06-08T19:11:28.621Z,56.40
2019-06-08T19:13:58.039Z,56.50
2019-06-08T19:16:28.493Z,56.70
2019-06-08T19:18:58.091Z,56.90
2019-06-08T19:21:27.808Z,57.10
2019-06-08T19:23:56.903Z,57.00
2019-06-08T19:26:28.016Z,57.40
2019-06-08T19:28:57.786Z,57.40
2019-06-08T19:31:27.639Z,57.30
2019-06-08T19:33:58.059Z,57.50
2019-06-08T19:36:28.028Z,57.70
2019-06-08T19:38:57.705Z,57.30
2019-06-08T19:41:28.285Z,57.10
2019-06-08T19:43:58.376Z,57.90
2019-06-08T19:46:27.280Z,58.20
2019-06-08T19:48:58.767Z,58.50
2019-06-08T19:51:27.817Z,58.40
2019-06-08T19:53:58.323Z,58.90
2019-06-08T19:56:28.214Z,59.00
2019-06-08T19:59:03.870Z,59.50
2019-06-08T20:01:28.421Z,59.70
2019-06-08T20:03:58.006Z,59.80
2019-06-08T20:06:27.934Z,60.50
2019-06-08T20:08:57.589Z,59.80
2019-06-08T20:11:26.235Z,59.50
2019-06-08T20:13:57.297Z,59.80
2019-06-08T20:16:27.725Z,60.00
2019-06-08T20:18:58.290Z,60.70
2019-06-08T20:21:27.558Z,61.10
2019-06-08T20:23:58.343Z,61.10
2019-06-08T20:26:28.462Z,61.50
2019-06-08T20:29:11.548Z,61.90
2019-06-08T20:31:27.438Z,62.00
2019-06-08T20:33:57.642Z,62.50
2019-06-08T20:36:28.700Z,63.40
2019-06-08T20:38:58.392Z,63.90
2019-06-08T20:41:27.762Z,64.30
2019-06-08T20:43:58.005Z,64.30
2019-06-08T20:46:28.599Z,64.30
2019-06-08T20:48:57.708Z,64.60
2019-06-08T20:51:27.834Z,64.80
2019-06-08T20:53:57.341Z,64.60
2019-06-08T20:56:27.996Z,64.90
2019-06-08T20:58:57.420Z,65.50
2019-06-08T21:01:26.169Z,66.00
2019-06-08T21:03:56.968Z,66.60
2019-06-08T21:06:25.055Z,67.10
2019-06-08T21:08:54.844Z,67.50
2019-06-08T21:11:24.046Z,69.00
2019-06-08T21:13:53.919Z,69.90
2019-06-08T21:16:22.923Z,71.40
2019-06-08T21:18:51.567Z,70.50
2019-06-08T21:21:20.229Z,71.50
2019-06-08T21:23:52.545Z,73.10
2019-06-08T21:26:19.124Z,73.00
2019-06-08T21:28:51.261Z,73.50
2019-06-08T21:31:18.087Z,73.50
2019-06-08T21:33:49.103Z,74.40
2019-06-08T21:36:18.163Z,74.60
2019-06-08T21:38:50.260Z,75.50
2019-06-08T21:41:17.318Z,75.20
2019-06-08T21:43:48.930Z,75.70
2019-06-08T21:46:16.230Z,76.10
2019-06-08T21:48:44.806Z,76.60
2019-06-08T21:51:13.384Z,76.70
2019-06-08T21:53:41.992Z,76.90
2019-06-08T21:56:10.654Z,77.30
2019-06-08T21:58:39.291Z,77.10
2019-06-08T22:01:08.162Z,77.70
2019-06-08T22:03:38.070Z,78.80
2019-06-08T22:06:07.875Z,79.10
2019-06-08T22:08:37.621Z,78.80
2019-06-08T22:11:08.575Z,78.80
2019-06-08T22:13:37.481Z,79.50
2019-06-08T22:16:08.084Z,79.80
2019-06-08T22:18:38.083Z,80.30
2019-06-08T22:21:08.111Z,79.80
2019-06-08T22:23:36.943Z,80.00
2019-06-08T22:26:08.091Z,79.60
2019-06-08T22:28:37.733Z,78.30
2019-06-08T22:31:08.021Z,78.40
2019-06-08T22:33:37.870Z,79.10
2019-06-08T22:36:08.884Z,79.00
2019-06-08T22:38:37.354Z,78.80
2019-06-08T22:41:08.074Z,79.80
2019-06-08T22:43:37.426Z,80.30
2019-06-08T22:46:08.318Z,80.30
2019-06-08T22:48:38.447Z,81.30
2019-06-08T22:51:08.010Z,81.50
2019-06-08T22:53:38.352Z,82.80
2019-06-08T22:56:08.067Z,83.90
2019-06-08T22:58:37.506Z,85.20
2019-06-08T23:01:08.650Z,85.00
2019-06-08T23:03:36.390Z,84.60
2019-06-08T23:06:08.170Z,85.40
2019-06-08T23:08:37.552Z,85.60
2019-06-08T23:11:08.278Z,85.10
2019-06-08T23:13:37.698Z,85.30
2019-06-08T23:16:08.909Z,85.40
2019-06-08T23:18:37.426Z,84.80
2019-06-08T23:21:08.715Z,84.70
2019-06-08T23:23:38.094Z,84.80
2019-06-08T23:26:10.189Z,85.10
2019-06-08T23:28:37.750Z,85.60
2019-06-08T23:31:19.354Z,86.20
2019-06-08T23:33:38.728Z,87.10
2019-06-08T23:36:40.166Z,88.10
2019-06-08T23:38:37.448Z,88.50
2019-06-08T23:41:08.747Z,89.20
2019-06-08T23:43:38.324Z,89.50
2019-06-08T23:46:08.012Z,90.00
2019-06-08T23:48:37.433Z,90.20
2019-06-08T23:51:09.111Z,90.40
2019-06-08T23:53:38.180Z,90.40
2019-06-08T23:56:11.304Z,90.50
2019-06-08T23:58:37.347Z,90.70
